createdAt,value
2023-05-05T03:13:29.612Z,6.20
2023-05-05T03:16:38.446Z,5.20
2023-05-05T03:19:45.646Z,5.57
2023-05-05T03:22:51.015Z,5.85
2023-05-05T03:25:55.369Z,8.00
2023-05-05T03:32:27.750Z,8.35
2023-05-05T03:35:33.180Z,6.15
2023-05-05T03:38:37.331Z,7.00
2023-05-05T03:41:42.246Z,9.52
2023-05-05T03:44:49.531Z,11.38
2023-05-05T03:47:54.350Z,8.15
2023-05-05T03:50:58.672Z,8.45
2023-05-05T03:54:04.931Z,7.10
2023-05-05T03:57:09.049Z,7.55
2023-05-05T04:00:28.749Z,5.80
2023-05-05T04:03:33.032Z,9.88
2023-05-05T04:06:37.895Z,8.43
2023-05-05T04:09:44.759Z,8.13
2023-05-05T04:13:00.655Z,6.95
2023-05-05T04:16:09.066Z,7.30
2023-05-05T04:19:15.490Z,8.10
2023-05-05T04:22:20.808Z,8.05
2023-05-05T04:25:25.774Z,7.80
2023-05-05T04:28:34.561Z,10.18
2023-05-05T04:31:41.017Z,7.57
2023-05-05T04:34:45.677Z,9.45
2023-05-05T04:37:50.369Z,7.53
2023-05-05T04:40:54.726Z,7.38
2023-05-05T04:44:00.075Z,8.35
2023-05-05T04:47:06.283Z,7.82
2023-05-05T04:50:12.838Z,8.95
2023-05-05T04:53:21.709Z,8.73
2023-05-05T04:56:26.384Z,9.35
2023-05-05T04:59:31.708Z,8.40
2023-05-05T05:02:38.563Z,7.30
2023-05-05T05:05:42.939Z,9.68
2023-05-05T05:08:48.131Z,8.83
2023-05-05T05:11:52.893Z,9.40
2023-05-05T05:14:59.371Z,7.70
2023-05-05T05:18:05.426Z,9.32
2023-05-05T05:21:11.123Z,7.05
2023-05-05T05:24:16.544Z,10.50
2023-05-05T05:27:21.600Z,10.80
2023-05-05T05:30:33.977Z,10.55
2023-05-05T05:33:43.437Z,10.88
2023-05-05T05:36:55.956Z,9.67
2023-05-05T05:40:08.459Z,8.85
2023-05-05T05:43:15.139Z,14.25
2023-05-05T05:46:25.369Z,7.53
2023-05-05T05:49:31.667Z,10.50
2023-05-05T05:52:37.678Z,7.18
2023-05-05T05:55:44.081Z,5.82
2023-05-05T05:58:51.843Z,15.82
2023-05-05T06:01:57.510Z,6.85
2023-05-05T06:05:04.745Z,4.30
2023-05-05T06:08:10.106Z,4.53
2023-05-05T06:11:20.869Z,5.20
2023-05-05T06:14:26.029Z,4.47
2023-05-05T06:17:30.895Z,3.58
2023-05-05T06:20:36.544Z,2.85
2023-05-05T06:30:01.083Z,3.40
2023-05-05T06:33:05.846Z,2.10
2023-05-05T06:36:12.460Z,2.33
2023-05-05T06:39:17.276Z,1.27
2023-05-05T06:42:22.069Z,1.45
2023-05-05T06:45:31.466Z,2.58
2023-05-05T06:48:36.413Z,2.75
2023-05-05T06:51:42.936Z,2.88
2023-05-05T06:54:47.118Z,3.53
2023-05-05T06:57:51.745Z,4.90
2023-05-05T07:00:59.687Z,4.07
2023-05-05T07:04:04.383Z,3.53
2023-05-05T07:07:10.725Z,2.38
2023-05-05T07:10:15.354Z,3.42
2023-05-05T07:13:19.701Z,2.50
2023-05-05T07:16:25.765Z,2.75
2023-05-05T07:19:30.206Z,2.75
2023-05-05T07:22:36.551Z,2.33
2023-05-05T07:25:40.801Z,3.13
2023-05-05T07:28:45.245Z,2.00
2023-05-05T07:31:49.723Z,3.42
2023-05-05T07:34:54.706Z,2.28
2023-05-05T07:38:04.215Z,2.28
2023-05-05T07:41:09.278Z,1.83
2023-05-05T07:44:13.953Z,2.75
2023-05-05T07:47:18.821Z,3.65
2023-05-05T07:50:23.698Z,1.38
2023-05-05T07:53:34.135Z,1.25
2023-05-05T07:56:39.085Z,2.83
2023-05-05T07:59:44.338Z,1.42
2023-05-05T08:02:52.961Z,1.77
2023-05-05T08:05:57.848Z,2.75
2023-05-05T08:09:03.768Z,1.13
2023-05-05T08:12:08.840Z,2.28
2023-05-05T08:15:13.863Z,2.22
2023-05-05T08:18:19.031Z,0.68
2023-05-05T08:21:24.100Z,2.58
2023-05-05T08:24:34.244Z,1.90
2023-05-05T08:27:39.445Z,1.88
2023-05-05T08:30:44.332Z,2.50
2023-05-05T08:33:49.688Z,0.77
2023-05-05T08:36:58.799Z,1.70
2023-05-05T08:40:05.190Z,1.60
2023-05-05T08:43:13.788Z,1.85
2023-05-05T08:46:19.025Z,1.15
2023-05-05T08:49:27.056Z,1.58
2023-05-05T08:52:41.067Z,1.45
2023-05-05T08:55:52.986Z,1.58
2023-05-05T08:58:59.132Z,1.80
2023-05-05T09:02:06.597Z,2.53
2023-05-05T09:05:11.408Z,2.03
2023-05-05T09:08:16.098Z,1.17
2023-05-05T09:11:26.003Z,2.38
2023-05-05T09:14:30.841Z,1.75
2023-05-05T09:17:35.719Z,1.42
2023-05-05T09:20:46.658Z,1.52
2023-05-05T09:24:10.837Z,2.60
2023-05-05T09:27:25.008Z,6.35
2023-05-05T09:30:30.508Z,2.03
2023-05-05T09:33:41.358Z,0.93
2023-05-05T09:36:48.375Z,2.80
2023-05-05T09:39:56.698Z,5.38
2023-05-05T09:43:08.368Z,1.38
2023-05-05T09:46:13.334Z,1.80
2023-05-05T09:49:18.953Z,1.13
2023-05-05T09:52:23.273Z,1.40
2023-05-05T09:55:27.570Z,4.97
2023-05-05T09:58:33.862Z,1.98
2023-05-05T10:01:38.217Z,2.00
2023-05-05T10:04:42.711Z,2.30
2023-05-05T10:07:49.371Z,2.47
2023-05-05T10:10:56.216Z,7.43
2023-05-05T10:14:03.609Z,1.90
2023-05-05T10:17:11.720Z,3.83
2023-05-05T10:20:17.458Z,1.17
2023-05-05T10:23:25.835Z,1.20
2023-05-05T10:26:38.479Z,1.33
2023-05-05T10:29:55.186Z,2.88
2023-05-05T10:33:27.311Z,5.05
2023-05-05T10:39:43.685Z,1.98
2023-05-05T10:42:50.294Z,2.95
2023-05-05T10:46:01.592Z,1.17
2023-05-05T10:49:18.892Z,3.65
2023-05-05T10:52:34.945Z,1.60
2023-05-05T10:55:48.073Z,1.90
2023-05-05T10:58:59.815Z,2.25
2023-05-05T11:02:21.459Z,3.17
2023-05-05T11:05:26.215Z,1.20
2023-05-05T11:08:31.452Z,1.30
2023-05-05T11:12:08.680Z,1.30
2023-05-05T11:15:38.968Z,3.08
2023-05-05T11:18:49.866Z,2.08
2023-05-05T11:22:04.438Z,3.90
2023-05-05T11:25:48.343Z,2.33
2023-05-05T11:29:03.318Z,1.65
2023-05-05T11:32:16.008Z,3.50
2023-05-05T11:35:58.650Z,1.83
2023-05-05T11:39:14.574Z,3.40
2023-05-05T11:42:31.389Z,2.90
2023-05-05T11:45:37.588Z,1.83
2023-05-05T11:48:48.563Z,2.28
2023-05-05T11:51:59.773Z,3.05
2023-05-05T11:55:04.877Z,1.52
2023-05-05T11:58:19.957Z,0.80
2023-05-05T12:01:24.534Z,2.40
2023-05-05T12:04:28.986Z,1.85
2023-05-05T12:07:35.441Z,5.55
2023-05-05T12:10:39.771Z,1.27
2023-05-05T12:13:45.054Z,3.30
2023-05-05T12:17:01.595Z,1.27
2023-05-05T12:20:07.892Z,1.98
2023-05-05T12:23:15.095Z,1.38
2023-05-05T12:26:31.725Z,1.45
2023-05-05T12:29:36.312Z,1.45
2023-05-05T12:32:41.671Z,1.20
2023-05-05T12:35:46.228Z,0.65
2023-05-05T12:38:52.265Z,4.05
2023-05-05T12:42:04.906Z,1.33
2023-05-05T12:45:18.849Z,1.85
2023-05-05T12:48:27.666Z,1.13
2023-05-05T12:51:37.904Z,2.47
2023-05-05T12:54:56.243Z,1.50
2023-05-05T12:58:02.327Z,2.20
2023-05-05T13:01:13.164Z,1.15
2023-05-05T13:04:24.835Z,2.10
2023-05-05T13:07:29.160Z,1.75
2023-05-05T13:10:35.534Z,1.10
2023-05-05T13:13:39.769Z,1.92
2023-05-05T13:16:50.339Z,3.05
2023-05-05T13:19:55.336Z,1.83
2023-05-05T13:23:00.192Z,1.17
2023-05-05T13:26:06.338Z,1.65
2023-05-05T13:29:11.395Z,1.10
2023-05-05T13:32:20.967Z,1.95
2023-05-05T13:35:25.770Z,3.13
2023-05-05T13:38:32.495Z,1.60
2023-05-05T13:41:38.806Z,2.95
2023-05-05T13:44:43.429Z,1.58
2023-05-05T13:47:49.353Z,1.52
2023-05-05T13:50:53.980Z,4.82
2023-05-05T13:53:58.605Z,1.58
2023-05-05T13:57:12.717Z,2.45
2023-05-05T14:00:22.627Z,0.82
2023-05-05T14:03:27.014Z,1.58
2023-05-05T14:06:32.726Z,1.42
2023-05-05T14:09:37.014Z,3.55
2023-05-05T14:12:44.623Z,2.10
2023-05-05T14:15:55.028Z,6.63
2023-05-05T14:19:03.820Z,3.58
2023-05-05T14:22:10.268Z,1.73
2023-05-05T14:25:16.930Z,4.50
2023-05-05T14:28:26.801Z,1.52
2023-05-05T14:31:31.437Z,1.63
2023-05-05T14:34:35.997Z,2.35
2023-05-05T14:37:40.563Z,4.93
2023-05-05T14:40:45.403Z,3.60
2023-05-05T14:43:51.685Z,6.60
2023-05-05T14:46:56.331Z,1.98
2023-05-05T14:50:00.839Z,1.65
2023-05-05T14:53:05.434Z,1.10
2023-05-05T14:56:10.315Z,1.60
2023-05-05T14:59:16.317Z,3.28
2023-05-05T15:02:20.951Z,1.25
2023-05-05T15:05:29.738Z,1.83
2023-05-05T15:08:34.344Z,5.03
2023-05-05T15:11:38.835Z,2.03
2023-05-05T15:14:44.895Z,1.65
2023-05-05T15:17:49.514Z,1.83
2023-05-05T15:20:54.660Z,1.42
2023-05-05T15:23:59.155Z,6.88
2023-05-05T15:27:04.454Z,4.18
2023-05-05T15:30:15.675Z,2.33
2023-05-05T15:33:20.399Z,1.73
2023-05-05T15:36:28.969Z,4.75
2023-05-05T15:39:33.755Z,0.80
2023-05-05T15:42:38.824Z,2.90
2023-05-05T15:45:44.944Z,1.70
2023-05-05T15:48:49.456Z,1.88
2023-05-05T15:51:54.305Z,1.02
2023-05-05T15:54:58.874Z,1.10
2023-05-05T15:58:03.460Z,1.33
2023-05-05T16:01:12.921Z,3.22
